SWR160 LSZH-RJAA
Flight info
| Callsign | SWR160 |
|---|---|
| Flight time | N/A |
| Altitude | 31000 |
| Route | DEGES Z2 UMVEG DCT DIMLO DCT INVED DCT BALBI DCT DINRO DCT UDROS UM859 KARDE/N0491F330 UN644 ROLIN DCT TETRO DCT BARAD M747 LIMTI N161 GASBI/K0913F330 N161 MADEV/K0895F350 N161 SARIN/K0893S1070 A368 FKG W188 GOVSA W66 DKO W69 HUR B339 LADIX W34 PAMRU/K0909S1130 W34 VAPGU W100 ORAVA W201 UNSEK A326 DONVO G597 AGAVO/N0484F370 Y644 EGOBA Y697 LANAT Y51 SAMON Y517 ESKAS Y303 ENTAK/N0484F380 Y30 SWAMP |
| Aircraft | B77W/H-SDE1E2E3FGHIJ2J3J4J5M1RWXY/LB1D1 |
Departure
| Time | 2026-05-06 21:17 |
|---|---|
| Airport | Zürich Airport (LSZH) |
Arrival
| Time | N/A |
|---|---|
| Airport | Narita International Airport (RJAA) |
| Time | Latitude | Longitude | Altitude | Speed | Heading |
|---|---|---|---|---|---|
| 2026-05-06 21:04 | 47.46213 | 8.55250 | 1400 ft | 0 kts | 186° |
| 2026-05-06 21:09 | 47.46214 | 8.55250 | 1400 ft | 0 kts | 186° |
| 2026-05-06 21:09 | 47.46232 | 8.55252 | 1409 ft | 3 kts | 183° |
| 2026-05-06 21:09 | 47.46252 | 8.55255 | 1406 ft | 3 kts | 185° |
| 2026-05-06 21:10 | 47.46264 | 8.55256 | 1409 ft | 1 kts | 156° |
| 2026-05-06 21:10 | 47.46270 | 8.55248 | 1409 ft | 1 kts | 112° |
| 2026-05-06 21:10 | 47.46273 | 8.55236 | 1408 ft | 1 kts | 101° |
| 2026-05-06 21:10 | 47.46275 | 8.55224 | 1408 ft | 1 kts | 98° |
| 2026-05-06 21:11 | 47.46276 | 8.55211 | 1408 ft | 1 kts | 97° |
| 2026-05-06 21:11 | 47.46276 | 8.55201 | 1408 ft | 0 kts | 96° |
| 2026-05-06 21:13 | 47.46275 | 8.55215 | 1408 ft | 7 kts | 97° |
| 2026-05-06 21:13 | 47.46263 | 8.55381 | 1404 ft | 18 kts | 95° |
| 2026-05-06 21:14 | 47.46251 | 8.55568 | 1412 ft | 18 kts | 96° |
| 2026-05-06 21:14 | 47.46233 | 8.55812 | 1407 ft | 28 kts | 96° |
| 2026-05-06 21:14 | 47.46157 | 8.56067 | 1420 ft | 28 kts | 138° |
| 2026-05-06 21:14 | 47.46011 | 8.56262 | 1419 ft | 28 kts | 139° |
| 2026-05-06 21:15 | 47.45889 | 8.56427 | 1425 ft | 21 kts | 137° |
| 2026-05-06 21:15 | 47.45802 | 8.56562 | 1426 ft | 21 kts | 112° |
| 2026-05-06 21:15 | 47.45785 | 8.56780 | 1425 ft | 21 kts | 96° |
| 2026-05-06 21:15 | 47.45755 | 8.56992 | 1429 ft | 21 kts | 128° |
| 2026-05-06 21:16 | 47.45671 | 8.56995 | 1429 ft | 9 kts | 245° |
| 2026-05-06 21:16 | 47.45673 | 8.56868 | 1427 ft | 25 kts | 274° |
| 2026-05-06 21:16 | 47.45718 | 8.56227 | 1423 ft | 104 kts | 276° |
| 2026-05-06 21:16 | 47.45824 | 8.54746 | 1401 ft | 184 kts | 276° |
| 2026-05-06 21:17 | 47.45981 | 8.52684 | 1883 ft | 212 kts | 276° |
| 2026-05-06 21:17 | 47.46176 | 8.50516 | 3127 ft | 210 kts | 277° |
| 2026-05-06 21:17 | 47.46395 | 8.48467 | 4281 ft | 197 kts | 275° |
| 2026-05-06 21:17 | 47.46311 | 8.46400 | 4443 ft | 213 kts | 249° |
| 2026-05-06 21:18 | 47.45582 | 8.44482 | 4910 ft | 214 kts | 235° |
| 2026-05-06 21:18 | 47.44682 | 8.42707 | 5390 ft | 220 kts | 234° |
| 2026-05-06 21:18 | 47.43651 | 8.40986 | 5656 ft | 235 kts | 215° |
| 2026-05-06 21:18 | 47.42003 | 8.40311 | 5806 ft | 261 kts | 176° |
| 2026-05-06 21:19 | 47.40351 | 8.41427 | 6404 ft | 275 kts | 136° |
| 2026-05-06 21:19 | 47.39501 | 8.43994 | 6787 ft | 290 kts | 96° |
| 2026-05-06 21:19 | 47.39821 | 8.46941 | 7143 ft | 300 kts | 59° |
| 2026-05-06 21:19 | 47.41186 | 8.49281 | 7545 ft | 301 kts | 39° |
| 2026-05-06 21:20 | 47.42716 | 8.51304 | 8456 ft | 291 kts | 39° |
| 2026-05-06 21:20 | 47.44267 | 8.53318 | 8827 ft | 304 kts | 39° |
| 2026-05-06 21:20 | 47.45692 | 8.55672 | 9083 ft | 313 kts | 63° |
| 2026-05-06 21:20 | 47.46218 | 8.58764 | 9556 ft | 312 kts | 95° |
| 2026-05-06 21:21 | 47.46007 | 8.61942 | 10081 ft | 311 kts | 95° |
| 2026-05-06 21:21 | 47.46023 | 8.65213 | 10299 ft | 329 kts | 87° |
| 2026-05-06 21:21 | 47.46232 | 8.68688 | 10454 ft | 349 kts | 86° |
| 2026-05-06 21:21 | 47.46403 | 8.72363 | 10616 ft | 369 kts | 88° |
| 2026-05-06 21:22 | 47.46526 | 8.76241 | 10858 ft | 386 kts | 88° |
| 2026-05-06 21:22 | 47.46622 | 8.80240 | 11393 ft | 391 kts | 92° |
| 2026-05-06 21:22 | 47.46459 | 8.83986 | 11961 ft | 396 kts | 99° |
| 2026-05-06 21:22 | 47.45945 | 8.87971 | 12738 ft | 395 kts | 105° |
| 2026-05-06 21:23 | 47.45312 | 8.91926 | 13566 ft | 396 kts | 104° |
| 2026-05-06 21:23 | 47.44736 | 8.95918 | 14274 ft | 398 kts | 103° |
| 2026-05-06 21:23 | 47.44169 | 8.99941 | 14892 ft | 402 kts | 103° |
| 2026-05-06 21:23 | 47.43598 | 9.04001 | 15535 ft | 405 kts | 103° |
| 2026-05-06 21:24 | 47.43022 | 9.08088 | 16192 ft | 407 kts | 103° |
| 2026-05-06 21:24 | 47.42448 | 9.12141 | 16833 ft | 410 kts | 104° |
| 2026-05-06 21:24 | 47.41885 | 9.16337 | 17427 ft | 414 kts | 100° |
| 2026-05-06 21:24 | 47.41685 | 9.20576 | 17934 ft | 422 kts | 90° |
| 2026-05-06 21:25 | 47.41945 | 9.24911 | 18489 ft | 427 kts | 82° |
| 2026-05-06 21:25 | 47.42598 | 9.29208 | 19010 ft | 431 kts | 77° |
| 2026-05-06 21:25 | 47.43310 | 9.33541 | 19521 ft | 435 kts | 79° |
| 2026-05-06 21:25 | 47.43984 | 9.37911 | 20039 ft | 438 kts | 79° |
| 2026-05-06 21:26 | 47.44647 | 9.42319 | 20571 ft | 441 kts | 80° |
| 2026-05-06 21:26 | 47.45311 | 9.46765 | 21077 ft | 444 kts | 80° |
| 2026-05-06 21:26 | 47.45979 | 9.51233 | 21538 ft | 448 kts | 80° |
| 2026-05-06 21:26 | 47.46641 | 9.55749 | 22069 ft | 450 kts | 82° |
| 2026-05-06 21:27 | 47.47052 | 9.60329 | 22551 ft | 450 kts | 89° |
| 2026-05-06 21:27 | 47.47107 | 9.64963 | 23051 ft | 450 kts | 96° |
| 2026-05-06 21:27 | 47.46831 | 9.69552 | 23547 ft | 450 kts | 99° |
| 2026-05-06 21:27 | 47.46525 | 9.74181 | 23934 ft | 454 kts | 99° |
| 2026-05-06 21:28 | 47.46249 | 9.78850 | 24272 ft | 458 kts | 99° |
| 2026-05-06 21:28 | 47.45984 | 9.83570 | 24603 ft | 463 kts | 98° |
| 2026-05-06 21:28 | 47.45722 | 9.88333 | 24926 ft | 467 kts | 99° |
| 2026-05-06 21:28 | 47.45454 | 9.93128 | 25273 ft | 470 kts | 99° |
| 2026-05-06 21:29 | 47.45180 | 9.97964 | 25620 ft | 474 kts | 99° |
| 2026-05-06 21:29 | 47.44896 | 10.02896 | 25930 ft | 478 kts | 99° |
| 2026-05-06 21:29 | 47.44613 | 10.07806 | 26226 ft | 482 kts | 99° |
| 2026-05-06 21:29 | 47.44330 | 10.12690 | 26522 ft | 485 kts | 99° |
| 2026-05-06 21:30 | 47.44133 | 10.16049 | 26743 ft | 487 kts | 100° |
| 2026-05-06 21:30 | 47.43842 | 10.20092 | 26995 ft | 488 kts | 103° |
| 2026-05-06 21:30 | 47.43261 | 10.25038 | 27179 ft | 490 kts | 107° |
| 2026-05-06 21:30 | 47.42543 | 10.29972 | 27508 ft | 492 kts | 108° |
| 2026-05-06 21:31 | 47.41805 | 10.34907 | 27869 ft | 494 kts | 108° |
| 2026-05-06 21:31 | 47.41091 | 10.39889 | 28127 ft | 498 kts | 107° |
| 2026-05-06 21:31 | 47.40406 | 10.44920 | 28376 ft | 501 kts | 107° |
| 2026-05-06 21:31 | 47.39725 | 10.49982 | 28612 ft | 504 kts | 107° |
| 2026-05-06 21:32 | 47.39033 | 10.55064 | 28902 ft | 506 kts | 108° |
| 2026-05-06 21:32 | 47.37845 | 10.63622 | 29323 ft | 511 kts | 108° |
| 2026-05-06 21:32 | 47.37126 | 10.68772 | 29521 ft | 514 kts | 108° |
| 2026-05-06 21:33 | 47.36402 | 10.73947 | 29796 ft | 515 kts | 108° |
| 2026-05-06 21:33 | 47.35680 | 10.79119 | 30149 ft | 514 kts | 108° |
| 2026-05-06 21:33 | 47.34960 | 10.84275 | 30484 ft | 512 kts | 108° |
| 2026-05-06 21:33 | 47.34238 | 10.89406 | 30741 ft | 511 kts | 108° |
| 2026-05-06 21:34 | 47.33509 | 10.94553 | 30858 ft | 515 kts | 108° |
| 2026-05-06 21:34 | 47.32778 | 10.99715 | 30904 ft | 516 kts | 108° |
| 2026-05-06 21:34 | 47.31307 | 11.10025 | 30895 ft | 510 kts | 108° |
| 2026-05-06 21:35 | 47.29842 | 11.20248 | 30891 ft | 510 kts | 108° |
| 2026-05-06 21:35 | 47.28363 | 11.30479 | 30898 ft | 511 kts | 108° |
| 2026-05-06 21:36 | 47.26872 | 11.40742 | 30893 ft | 512 kts | 108° |
| 2026-05-06 21:36 | 47.25379 | 11.50991 | 30898 ft | 512 kts | 107° |
| 2026-05-06 21:37 | 47.24224 | 11.61367 | 30890 ft | 514 kts | 104° |
| 2026-05-06 21:37 | 47.23146 | 11.71770 | 30886 ft | 515 kts | 105° |
| 2026-05-06 21:38 | 47.22024 | 11.82165 | 30899 ft | 515 kts | 105° |
| 2026-05-06 21:38 | 47.20892 | 11.92600 | 30875 ft | 517 kts | 105° |
| 2026-05-06 21:39 | 47.19852 | 12.03102 | 30880 ft | 521 kts | 104° |
| 2026-05-06 21:39 | 47.18847 | 12.13663 | 30870 ft | 521 kts | 104° |
| 2026-05-06 21:40 | 47.17834 | 12.24152 | 30862 ft | 517 kts | 104° |
| 2026-05-06 21:40 | 47.16797 | 12.34564 | 30905 ft | 515 kts | 105° |
| 2026-05-06 21:41 | 47.15744 | 12.44990 | 30883 ft | 516 kts | 105° |
| 2026-05-06 21:41 | 47.14691 | 12.55341 | 30882 ft | 516 kts | 105° |
| 2026-05-06 21:42 | 47.13622 | 12.65770 | 30887 ft | 517 kts | 105° |
| 2026-05-06 21:42 | 47.12535 | 12.76211 | 30890 ft | 518 kts | 105° |
| 2026-05-06 21:43 | 47.11447 | 12.86676 | 30893 ft | 519 kts | 105° |
| 2026-05-06 21:43 | 47.10341 | 12.97156 | 30919 ft | 519 kts | 105° |
| 2026-05-06 21:44 | 47.09224 | 13.07647 | 30908 ft | 520 kts | 105° |
| 2026-05-06 21:44 | 47.08096 | 13.18192 | 30912 ft | 519 kts | 105° |
| 2026-05-06 21:45 | 47.06962 | 13.28614 | 30927 ft | 515 kts | 105° |
| 2026-05-06 21:45 | 47.05831 | 13.38959 | 30945 ft | 514 kts | 105° |
| 2026-05-06 21:46 | 47.04690 | 13.49313 | 30924 ft | 515 kts | 105° |
| 2026-05-06 21:46 | 47.03540 | 13.59662 | 30943 ft | 515 kts | 105° |
| 2026-05-06 21:47 | 47.02383 | 13.69993 | 30915 ft | 517 kts | 105° |
| 2026-05-06 21:47 | 47.01208 | 13.80383 | 30915 ft | 517 kts | 105° |
| 2026-05-06 21:48 | 47.00027 | 13.90758 | 30905 ft | 516 kts | 105° |
| 2026-05-06 21:48 | 46.98837 | 14.01116 | 30909 ft | 515 kts | 105° |
| 2026-05-06 21:49 | 46.97636 | 14.11453 | 30909 ft | 515 kts | 105° |
| 2026-05-06 21:49 | 46.96431 | 14.21783 | 30905 ft | 514 kts | 105° |
| 2026-05-06 21:50 | 46.95215 | 14.32090 | 30905 ft | 513 kts | 104° |
| 2026-05-06 21:50 | 46.93995 | 14.42375 | 30910 ft | 513 kts | 105° |
| 2026-05-06 21:51 | 46.92772 | 14.52598 | 30907 ft | 513 kts | 105° |
| 2026-05-06 21:51 | 46.91525 | 14.62900 | 30883 ft | 514 kts | 105° |
| 2026-05-06 21:52 | 46.90273 | 14.73183 | 30891 ft | 514 kts | 105° |
| 2026-05-06 21:52 | 46.89016 | 14.83480 | 30894 ft | 515 kts | 105° |
| 2026-05-06 21:53 | 46.87741 | 14.93789 | 30906 ft | 516 kts | 105° |
| 2026-05-06 21:53 | 46.86455 | 15.04110 | 30887 ft | 516 kts | 104° |
| 2026-05-06 21:54 | 46.85162 | 15.14428 | 30893 ft | 516 kts | 105° |
| 2026-05-06 21:54 | 46.83858 | 15.24739 | 30883 ft | 516 kts | 105° |
| 2026-05-06 21:55 | 46.82546 | 15.35044 | 30880 ft | 516 kts | 105° |
| 2026-05-06 21:55 | 46.81225 | 15.45338 | 30886 ft | 516 kts | 105° |
| 2026-05-06 21:56 | 46.79894 | 15.55634 | 30881 ft | 516 kts | 105° |
| 2026-05-06 21:56 | 46.78554 | 15.65919 | 30886 ft | 516 kts | 105° |
| 2026-05-06 21:57 | 46.77205 | 15.76203 | 30892 ft | 516 kts | 105° |
| 2026-05-06 21:57 | 46.75845 | 15.86493 | 30903 ft | 516 kts | 105° |
| 2026-05-06 21:58 | 46.74478 | 15.96762 | 30895 ft | 516 kts | 105° |
| 2026-05-06 21:58 | 46.73100 | 16.07044 | 30890 ft | 516 kts | 105° |
| 2026-05-06 21:59 | 46.71714 | 16.17306 | 30889 ft | 516 kts | 105° |
| 2026-05-06 21:59 | 46.70321 | 16.27559 | 30893 ft | 516 kts | 105° |
| 2026-05-06 22:00 | 46.68920 | 16.37796 | 30888 ft | 515 kts | 105° |
| 2026-05-06 22:00 | 46.67561 | 16.48031 | 30899 ft | 515 kts | 103° |
| 2026-05-06 22:01 | 46.66397 | 16.58331 | 30900 ft | 515 kts | 102° |
| 2026-05-06 22:01 | 46.65259 | 16.68628 | 30906 ft | 515 kts | 102° |
| 2026-05-06 22:02 | 46.64084 | 16.78907 | 30911 ft | 514 kts | 103° |
| 2026-05-06 22:02 | 46.62881 | 16.89161 | 30911 ft | 514 kts | 103° |
| 2026-05-06 22:03 | 46.61665 | 16.99418 | 30915 ft | 514 kts | 103° |
| 2026-05-06 22:03 | 46.60444 | 17.09655 | 30912 ft | 514 kts | 103° |
| 2026-05-06 22:04 | 46.59214 | 17.19888 | 30910 ft | 514 kts | 103° |
| 2026-05-06 22:04 | 46.57977 | 17.30106 | 30909 ft | 513 kts | 102° |
| 2026-05-06 22:05 | 46.56732 | 17.40312 | 30915 ft | 512 kts | 102° |
| 2026-05-06 22:05 | 46.55478 | 17.50499 | 30918 ft | 512 kts | 102° |
| 2026-05-06 22:06 | 46.54219 | 17.60665 | 30925 ft | 511 kts | 102° |
| 2026-05-06 22:06 | 46.52950 | 17.70818 | 30930 ft | 511 kts | 102° |
| 2026-05-06 22:07 | 46.51673 | 17.80970 | 30934 ft | 511 kts | 102° |
| 2026-05-06 22:07 | 46.50387 | 17.91111 | 30934 ft | 511 kts | 102° |
| 2026-05-06 22:08 | 46.49090 | 18.01267 | 30939 ft | 511 kts | 102° |
| 2026-05-06 22:08 | 46.47998 | 18.09765 | 30939 ft | 512 kts | 102° |
| 2026-05-06 22:09 | 46.46682 | 18.19926 | 30937 ft | 512 kts | 102° |
| 2026-05-06 22:09 | 46.45356 | 18.30094 | 30934 ft | 513 kts | 102° |
| 2026-05-06 22:10 | 46.44020 | 18.40260 | 30943 ft | 513 kts | 102° |
| 2026-05-06 22:10 | 46.42676 | 18.50428 | 30949 ft | 514 kts | 102° |
| 2026-05-06 22:11 | 46.41321 | 18.60594 | 30942 ft | 514 kts | 102° |
| 2026-05-06 22:11 | 46.39957 | 18.70759 | 30946 ft | 514 kts | 102° |
| 2026-05-06 22:12 | 46.38585 | 18.80910 | 30949 ft | 513 kts | 102° |
| 2026-05-06 22:12 | 46.37203 | 18.91058 | 30953 ft | 513 kts | 102° |
| 2026-05-06 22:13 | 46.35813 | 19.01205 | 30947 ft | 513 kts | 102° |
| 2026-05-06 22:13 | 46.34417 | 19.11319 | 30954 ft | 513 kts | 102° |
| 2026-05-06 22:14 | 46.33011 | 19.21437 | 30948 ft | 512 kts | 103° |
| 2026-05-06 22:14 | 46.31598 | 19.31528 | 30949 ft | 512 kts | 103° |
| 2026-05-06 22:15 | 46.30177 | 19.41614 | 30949 ft | 511 kts | 103° |
| 2026-05-06 22:15 | 46.28750 | 19.51680 | 30951 ft | 511 kts | 103° |
| 2026-05-06 22:16 | 46.27316 | 19.61724 | 30946 ft | 510 kts | 103° |
| 2026-05-06 22:16 | 46.25874 | 19.71760 | 30947 ft | 509 kts | 103° |
| 2026-05-06 22:17 | 46.24424 | 19.81778 | 30945 ft | 509 kts | 103° |
| 2026-05-06 22:17 | 46.22969 | 19.91771 | 30943 ft | 508 kts | 103° |
| 2026-05-06 22:18 | 46.21505 | 20.01763 | 30939 ft | 508 kts | 103° |
| 2026-05-06 22:18 | 46.20033 | 20.11737 | 30938 ft | 507 kts | 103° |
| 2026-05-06 22:19 | 46.18558 | 20.21680 | 30929 ft | 506 kts | 103° |
| 2026-05-06 22:19 | 46.17077 | 20.31601 | 30931 ft | 506 kts | 103° |
| 2026-05-06 22:20 | 46.15565 | 20.41504 | 30932 ft | 504 kts | 105° |
| 2026-05-06 22:20 | 46.13670 | 20.51156 | 30935 ft | 503 kts | 108° |
| 2026-05-06 22:21 | 46.11582 | 20.60776 | 30927 ft | 502 kts | 108° |
| 2026-05-06 22:21 | 46.09519 | 20.70378 | 30936 ft | 502 kts | 108° |
| 2026-05-06 22:22 | 46.07490 | 20.79996 | 30934 ft | 501 kts | 108° |
| 2026-05-06 22:22 | 46.05470 | 20.89606 | 30936 ft | 501 kts | 108° |
| 2026-05-06 22:23 | 46.03444 | 20.99210 | 30939 ft | 502 kts | 108° |
| 2026-05-06 22:23 | 46.01403 | 21.08823 | 30940 ft | 502 kts | 108° |
| 2026-05-06 22:24 | 45.99353 | 21.18423 | 30938 ft | 502 kts | 108° |
| 2026-05-06 22:24 | 45.97293 | 21.28027 | 30944 ft | 503 kts | 108° |
| 2026-05-06 22:25 | 45.95221 | 21.37643 | 30939 ft | 504 kts | 108° |
| 2026-05-06 22:25 | 45.93143 | 21.47248 | 30943 ft | 504 kts | 108° |
| 2026-05-06 22:26 | 45.91050 | 21.56870 | 30941 ft | 505 kts | 108° |
| 2026-05-06 22:26 | 45.88947 | 21.66498 | 30951 ft | 506 kts | 108° |
| 2026-05-06 22:27 | 45.86834 | 21.76125 | 30955 ft | 506 kts | 108° |
| 2026-05-06 22:27 | 45.84711 | 21.85756 | 30965 ft | 506 kts | 108° |
| 2026-05-06 22:28 | 45.82582 | 21.95369 | 30963 ft | 506 kts | 108° |
| 2026-05-06 22:28 | 45.80430 | 22.05037 | 30973 ft | 506 kts | 108° |
| 2026-05-06 22:29 | 45.78287 | 22.14630 | 30976 ft | 506 kts | 108° |
| 2026-05-06 22:29 | 45.76136 | 22.24211 | 30983 ft | 506 kts | 108° |
| 2026-05-06 22:30 | 45.73973 | 22.33801 | 30985 ft | 506 kts | 108° |
| 2026-05-06 22:30 | 45.71803 | 22.43380 | 31001 ft | 506 kts | 108° |
| 2026-05-06 22:31 | 45.69622 | 22.52963 | 31003 ft | 507 kts | 108° |
| 2026-05-06 22:31 | 45.67434 | 22.62536 | 31006 ft | 507 kts | 108° |
| 2026-05-06 22:32 | 45.65235 | 22.72117 | 31014 ft | 507 kts | 108° |
| 2026-05-06 22:32 | 45.63027 | 22.81693 | 31020 ft | 507 kts | 108° |
| 2026-05-06 22:33 | 45.60812 | 22.91253 | 31022 ft | 507 kts | 108° |
| 2026-05-06 22:33 | 45.58590 | 23.00803 | 31028 ft | 506 kts | 108° |
| 2026-05-06 22:34 | 45.56364 | 23.10335 | 31030 ft | 506 kts | 108° |
| 2026-05-06 22:34 | 45.54130 | 23.19851 | 31042 ft | 506 kts | 108° |
| 2026-05-06 22:35 | 45.51891 | 23.29354 | 31050 ft | 505 kts | 108° |
| 2026-05-06 22:35 | 45.49644 | 23.38845 | 31065 ft | 505 kts | 108° |
| 2026-05-06 22:36 | 45.47390 | 23.48325 | 31070 ft | 505 kts | 108° |
| 2026-05-06 22:36 | 45.45144 | 23.57733 | 31079 ft | 505 kts | 108° |
| 2026-05-06 22:37 | 45.42873 | 23.67211 | 31078 ft | 505 kts | 108° |
| 2026-05-06 22:37 | 45.40580 | 23.76736 | 31085 ft | 506 kts | 108° |
| 2026-05-06 22:38 | 45.38290 | 23.86204 | 31070 ft | 506 kts | 108° |
| 2026-05-06 22:38 | 45.35991 | 23.95668 | 31073 ft | 506 kts | 108° |
| 2026-05-06 22:39 | 45.33686 | 24.05121 | 31080 ft | 506 kts | 108° |
| 2026-05-06 22:39 | 45.31377 | 24.14557 | 31082 ft | 506 kts | 108° |
| 2026-05-06 22:40 | 45.29054 | 24.24005 | 31070 ft | 506 kts | 108° |
| 2026-05-06 22:40 | 45.26726 | 24.33431 | 31085 ft | 505 kts | 108° |
| 2026-05-06 22:41 | 45.23222 | 24.47549 | 31092 ft | 505 kts | 108° |
| 2026-05-06 22:42 | 45.20878 | 24.56948 | 31082 ft | 505 kts | 108° |
| 2026-05-06 22:42 | 45.18541 | 24.66277 | 31100 ft | 505 kts | 108° |
| 2026-05-06 22:43 | 45.16181 | 24.75657 | 31083 ft | 506 kts | 108° |
| 2026-05-06 22:43 | 45.13810 | 24.85044 | 31088 ft | 506 kts | 108° |
| 2026-05-06 22:44 | 45.11431 | 24.94429 | 31084 ft | 506 kts | 108° |
| 2026-05-06 22:44 | 45.09045 | 25.03800 | 31092 ft | 506 kts | 108° |
| 2026-05-06 22:45 | 45.06651 | 25.13165 | 31091 ft | 506 kts | 108° |
| 2026-05-06 22:45 | 45.04641 | 25.21002 | 31092 ft | 506 kts | 108° |
| 2026-05-06 22:46 | 45.02235 | 25.30344 | 31087 ft | 505 kts | 108° |
| 2026-05-06 22:46 | 44.99825 | 25.39666 | 31082 ft | 505 kts | 108° |
| 2026-05-06 22:47 | 44.97412 | 25.48960 | 31080 ft | 504 kts | 108° |
| 2026-05-06 22:47 | 44.94993 | 25.58243 | 31079 ft | 503 kts | 108° |
| 2026-05-06 22:48 | 44.92572 | 25.67508 | 31074 ft | 503 kts | 108° |
| 2026-05-06 22:48 | 44.90078 | 25.76719 | 31069 ft | 503 kts | 111° |
| 2026-05-06 22:49 | 44.86826 | 25.85478 | 31083 ft | 504 kts | 116° |
| 2026-05-06 22:49 | 44.83479 | 25.94168 | 31075 ft | 504 kts | 116° |
| 2026-05-06 22:50 | 44.80173 | 26.02874 | 31073 ft | 504 kts | 115° |
| 2026-05-06 22:50 | 44.76879 | 26.11598 | 31074 ft | 505 kts | 115° |
| 2026-05-06 22:51 | 44.73580 | 26.20318 | 31072 ft | 505 kts | 115° |
| 2026-05-06 22:51 | 44.70274 | 26.29021 | 31074 ft | 504 kts | 115° |
| 2026-05-06 22:52 | 44.66962 | 26.37710 | 31067 ft | 504 kts | 115° |
| 2026-05-06 22:52 | 44.63646 | 26.46379 | 31063 ft | 503 kts | 116° |
| 2026-05-06 22:53 | 44.60327 | 26.55027 | 31053 ft | 503 kts | 116° |
| 2026-05-06 22:53 | 44.57006 | 26.63657 | 31057 ft | 502 kts | 116° |
| 2026-05-06 22:54 | 44.53683 | 26.72264 | 31050 ft | 501 kts | 116° |
| 2026-05-06 22:54 | 44.50358 | 26.80850 | 31057 ft | 501 kts | 116° |
| 2026-05-06 22:55 | 44.47031 | 26.89415 | 31055 ft | 500 kts | 116° |
| 2026-05-06 22:55 | 44.43701 | 26.97962 | 31059 ft | 500 kts | 116° |
| 2026-05-06 22:56 | 44.40364 | 27.06501 | 31056 ft | 500 kts | 116° |
| 2026-05-06 22:56 | 44.37026 | 27.15017 | 31061 ft | 499 kts | 116° |
| 2026-05-06 22:57 | 44.33682 | 27.23522 | 31061 ft | 499 kts | 117° |
| 2026-05-06 22:57 | 44.30337 | 27.32002 | 31067 ft | 499 kts | 117° |
| 2026-05-06 22:58 | 44.26983 | 27.40481 | 31066 ft | 498 kts | 117° |
| 2026-05-06 22:58 | 44.23623 | 27.48950 | 31069 ft | 498 kts | 117° |
| 2026-05-06 22:59 | 44.20263 | 27.57393 | 31074 ft | 498 kts | 117° |
| 2026-05-06 22:59 | 44.16900 | 27.65818 | 31068 ft | 497 kts | 117° |
| 2026-05-06 23:00 | 44.13535 | 27.74223 | 31067 ft | 497 kts | 117° |
| 2026-05-06 23:00 | 44.10167 | 27.82610 | 31079 ft | 496 kts | 117° |
| 2026-05-06 23:01 | 44.06802 | 27.90967 | 31084 ft | 495 kts | 118° |
| 2026-05-06 23:01 | 44.03436 | 27.99301 | 31099 ft | 494 kts | 118° |
| 2026-05-06 23:02 | 44.00065 | 28.07624 | 31088 ft | 494 kts | 118° |
| 2026-05-06 23:02 | 43.96691 | 28.15927 | 31090 ft | 493 kts | 118° |
| 2026-05-06 23:03 | 43.93315 | 28.24212 | 31109 ft | 494 kts | 118° |
| 2026-05-06 23:03 | 43.89916 | 28.32532 | 31094 ft | 496 kts | 118° |
| 2026-05-06 23:04 | 43.86502 | 28.40862 | 31100 ft | 498 kts | 119° |
| 2026-05-06 23:04 | 43.83075 | 28.49200 | 31097 ft | 499 kts | 119° |
| 2026-05-06 23:05 | 43.79637 | 28.57542 | 31107 ft | 499 kts | 119° |
| 2026-05-06 23:05 | 43.76193 | 28.65874 | 31107 ft | 499 kts | 119° |
| 2026-05-06 23:06 | 43.72744 | 28.74197 | 31107 ft | 499 kts | 119° |
| 2026-05-06 23:06 | 43.69233 | 28.82469 | 31115 ft | 499 kts | 122° |
| 2026-05-06 23:07 | 43.65188 | 28.90257 | 31118 ft | 499 kts | 126° |
| 2026-05-06 23:07 | 43.61049 | 28.97975 | 31120 ft | 500 kts | 125° |
| 2026-05-06 23:08 | 43.56937 | 29.05724 | 31130 ft | 501 kts | 125° |
| 2026-05-06 23:08 | 43.52839 | 29.13501 | 31122 ft | 502 kts | 124° |
| 2026-05-06 23:09 | 43.48735 | 29.21285 | 31124 ft | 502 kts | 124° |
| 2026-05-06 23:09 | 43.44619 | 29.29068 | 31125 ft | 503 kts | 124° |
| 2026-05-06 23:10 | 43.40495 | 29.36841 | 31125 ft | 503 kts | 124° |
| 2026-05-06 23:10 | 43.36362 | 29.44608 | 31123 ft | 503 kts | 124° |
| 2026-05-06 23:11 | 43.32223 | 29.52367 | 31125 ft | 504 kts | 124° |
| 2026-05-06 23:11 | 43.28070 | 29.60131 | 31132 ft | 504 kts | 124° |
| 2026-05-06 23:12 | 43.23913 | 29.67884 | 31133 ft | 505 kts | 124° |
| 2026-05-06 23:12 | 43.19743 | 29.75639 | 31126 ft | 505 kts | 124° |
| 2026-05-06 23:13 | 43.15569 | 29.83381 | 31135 ft | 505 kts | 124° |
| 2026-05-06 23:13 | 43.11390 | 29.91113 | 31124 ft | 505 kts | 124° |
| 2026-05-06 23:14 | 43.07202 | 29.98841 | 31134 ft | 505 kts | 124° |
| 2026-05-06 23:14 | 43.03009 | 30.06558 | 31128 ft | 505 kts | 124° |